Página principal
METAR-TAF:

METAR-TAF

Aeroportos :

Aeroporto Internacional de Bagdad

Bagdá, Iraque

latitude: 33-15-45N, longitude: 44-14-04E, altura: 35 m

Observação actual do tempo

O boletim foi feito há 33 minutos, às 13:00 UTC
Vento 5 kt de oes-sudoeste
Temperatura 34°C
Humidade 25%
Pressão 1016 hPa
Visibilidade 10 km ou mais
Nuvens fragmentadasa uma altura de 3300 ft

METAR: ORBI 171300Z 25005KT 9999 BKN033 34/11 Q1016 NOSIG

Hora: 16:33 (13:33 UTC)

Previsão

O boletim foi feito há 2 horas e 33 minutos, às 11:00 UTC
Previsão válida de 17 às 12 UTC a 18 às 12 UTC
Vento 8 kt de nor-noroeste
Visibilidade: 8000 m
Nuvens fragmentadasa uma altura de 4000 ft

TAF: ORBI 171100Z 1712/1812 33008KT 8000 BKN040

Observações e previsões do tempo de mais de 4000 aeroportos (mensagens METAR e TAF).

As estações disponíveis são os pontos amarelos e vermelhos sobre o mapa.

Mova o rato sobre o mapa para ver o nome da estação.

Depois clique no ponto para visualizar as observações e previsões meteorológicas.

Para alterar o mapa : clique nos botões verdes com uma cruz preta para aumentar o zoom; no botão verde com uma pitada de zoom; ou nas setas verdes para mapas adjacentes.


METAR-TAF: